createdAt,value
2018-03-21T00:00:16.293Z,91687.60
2018-03-21T00:01:05.063Z,91688.94
2018-03-21T00:01:54.132Z,91687.34
2018-03-21T00:02:43.171Z,91684.67
2018-03-21T00:03:32.235Z,91682.72
2018-03-21T00:04:21.276Z,91676.16
2018-03-21T00:05:10.325Z,91670.92
2018-03-21T00:05:59.427Z,91668.79
2018-03-21T00:06:48.483Z,91669.94
2018-03-21T00:07:37.525Z,91664.44
2018-03-21T00:08:26.577Z,91668.34
2018-03-21T00:09:15.630Z,91669.95
2018-03-21T00:10:04.738Z,91663.53
2018-03-21T00:10:53.980Z,91668.23
2018-03-21T00:11:43.026Z,91671.55
2018-03-21T00:12:32.097Z,91669.67
2018-03-21T00:13:21.145Z,91680.48
2018-03-21T00:14:10.188Z,91676.77
2018-03-21T00:14:59.229Z,91679.44
2018-03-21T00:15:48.393Z,91674.91
2018-03-21T00:16:37.450Z,91675.95
2018-03-21T00:17:26.704Z,91680.30
2018-03-21T00:18:15.749Z,91678.63
2018-03-21T00:19:04.821Z,91672.42
2018-03-21T00:19:53.853Z,91672.33
2018-03-21T00:20:42.906Z,91664.42
2018-03-21T00:21:31.998Z,91659.10
2018-03-21T00:22:21.260Z,91652.81
2018-03-21T00:23:10.406Z,91653.95
2018-03-21T00:23:59.467Z,91656.63
2018-03-21T00:24:48.504Z,91655.55
2018-03-21T00:25:37.550Z,91653.59
2018-03-21T00:26:26.592Z,91653.34
2018-03-21T00:27:15.661Z,91654.39
2018-03-21T00:28:04.688Z,91656.86
2018-03-21T00:28:53.792Z,91650.48
2018-03-21T00:29:42.844Z,91651.38
2018-03-21T00:30:31.930Z,91647.66
2018-03-21T00:31:20.968Z,91643.75
2018-03-21T00:32:10.025Z,91644.91
2018-03-21T00:32:59.164Z,91643.22
2018-03-21T00:33:48.212Z,91647.44
2018-03-21T00:34:37.259Z,91647.94
2018-03-21T00:35:26.348Z,91646.98
2018-03-21T00:36:15.385Z,91649.63
2018-03-21T00:37:04.438Z,91653.63
2018-03-21T00:37:53.482Z,91648.22
2018-03-21T00:38:42.625Z,91651.25
2018-03-21T00:39:31.674Z,91652.32
2018-03-21T00:40:20.721Z,91653.92
2018-03-21T00:41:09.764Z,91652.58
2018-03-21T00:41:58.806Z,91657.61
2018-03-21T00:42:47.912Z,91658.78
2018-03-21T00:43:36.928Z,91662.48
2018-03-21T00:44:26.020Z,91662.39
2018-03-21T00:45:15.066Z,91663.30
2018-03-21T00:46:04.117Z,91664.77
2018-03-21T00:46:53.168Z,91656.61
2018-03-21T00:47:42.212Z,91647.93
2018-03-21T00:48:31.263Z,91655.34
2018-03-21T00:49:20.306Z,91645.07
2018-03-21T00:50:09.401Z,91647.55
2018-03-21T00:50:58.454Z,91636.51
2018-03-21T00:51:47.521Z,91645.31
2018-03-21T00:52:36.560Z,91641.87
2018-03-21T00:53:25.637Z,91641.09
2018-03-21T00:54:14.723Z,91639.86
2018-03-21T00:55:03.795Z,91637.03
2018-03-21T00:55:52.965Z,91630.55
2018-03-21T00:56:42.012Z,91631.70
2018-03-21T00:57:31.058Z,91634.88
2018-03-21T00:58:20.307Z,91637.41
2018-03-21T00:59:09.369Z,91631.66
2018-03-21T00:59:58.418Z,91628.53
2018-03-21T01:00:47.463Z,91622.15
2018-03-21T01:01:36.514Z,91628.80
2018-03-21T01:02:25.565Z,91624.81
2018-03-21T01:03:14.616Z,91625.00
2018-03-21T01:04:03.742Z,91628.64
2018-03-21T01:04:52.820Z,91622.27
2018-03-21T01:05:41.875Z,91628.56
2018-03-21T01:06:30.972Z,91631.40
2018-03-21T01:07:20.054Z,91631.59
2018-03-21T01:08:09.109Z,91639.74
2018-03-21T01:08:58.158Z,91639.30
2018-03-21T01:09:47.251Z,91634.61
2018-03-21T01:10:36.302Z,91634.52
2018-03-21T01:11:25.369Z,91642.95
2018-03-21T01:12:17.522Z,91641.89
2018-03-21T01:13:06.581Z,91642.59
2018-03-21T01:13:55.625Z,91639.31
2018-03-21T01:14:44.675Z,91642.41
2018-03-21T01:15:33.863Z,91644.70
2018-03-21T01:16:22.944Z,91643.92
2018-03-21T01:17:11.998Z,91649.78
2018-03-21T01:18:01.048Z,91650.94
2018-03-21T01:18:50.098Z,91637.77
2018-03-21T01:19:39.166Z,91640.25
2018-03-21T01:20:28.216Z,91646.44
2018-03-21T01:21:17.305Z,91643.78
2018-03-21T01:22:06.351Z,91644.23
2018-03-21T01:22:55.411Z,91644.95
2018-03-21T01:23:44.495Z,91638.94
2018-03-21T01:24:33.580Z,91639.20
2018-03-21T01:25:22.632Z,91636.02
2018-03-21T01:26:11.690Z,91636.39
2018-03-21T01:27:00.853Z,91640.63
2018-03-21T01:27:49.893Z,91644.34
2018-03-21T01:28:38.928Z,91640.62
2018-03-21T01:29:27.964Z,91644.95
2018-03-21T01:30:17.008Z,91653.13
2018-03-21T01:31:06.150Z,91656.23
2018-03-21T01:31:55.210Z,91656.16
2018-03-21T01:32:44.258Z,91662.91
2018-03-21T01:33:33.304Z,91665.93
2018-03-21T01:34:22.353Z,91665.13
2018-03-21T01:35:11.443Z,91670.09
2018-03-21T01:36:00.496Z,91659.02
2018-03-21T01:36:49.621Z,91658.49
2018-03-21T01:37:38.697Z,91652.19
2018-03-21T01:38:27.779Z,91650.23
2018-03-21T01:39:16.831Z,91651.22
2018-03-21T01:40:05.889Z,91649.00
2018-03-21T01:40:54.937Z,91645.18
2018-03-21T01:41:44.051Z,91654.23
2018-03-21T01:42:33.117Z,91645.70
2018-03-21T01:43:22.185Z,91650.33
2018-03-21T01:44:11.231Z,91648.45
2018-03-21T01:45:00.299Z,91653.06
2018-03-21T01:45:49.521Z,91652.62
2018-03-21T01:46:38.589Z,91651.56
2018-03-21T01:47:27.728Z,91649.17
2018-03-21T01:48:16.771Z,91651.38
2018-03-21T01:49:05.826Z,91659.72
2018-03-21T01:49:54.887Z,91654.12
2018-03-21T01:50:43.938Z,91658.91
2018-03-21T01:51:33.001Z,91650.73
2018-03-21T01:52:22.040Z,91637.28
2018-03-21T01:53:11.206Z,91637.45
2018-03-21T01:54:00.258Z,91625.40
2018-03-21T01:54:49.299Z,91626.28
2018-03-21T01:55:38.356Z,91623.70
2018-03-21T01:56:27.407Z,91624.15
2018-03-21T01:57:16.455Z,91614.56
2018-03-21T01:58:05.557Z,91614.03
2018-03-21T01:58:54.717Z,91622.10
2018-03-21T01:59:43.762Z,91621.39
2018-03-21T02:00:32.833Z,91620.06
2018-03-21T02:01:21.879Z,91622.63
2018-03-21T02:02:10.929Z,91624.66
2018-03-21T02:03:00.004Z,91622.72
2018-03-21T02:03:49.057Z,91628.57
2018-03-21T02:04:38.149Z,91629.55
2018-03-21T02:05:27.192Z,91634.86
2018-03-21T02:06:16.582Z,91630.86
2018-03-21T02:07:05.650Z,91629.89
2018-03-21T02:07:54.704Z,91630.86
2018-03-21T02:08:43.747Z,91640.08
2018-03-21T02:09:32.921Z,91645.94
2018-03-21T02:10:21.973Z,91653.73
2018-03-21T02:11:11.028Z,91647.80
2018-03-21T02:12:00.126Z,91647.80
2018-03-21T02:12:49.164Z,91648.80
2018-03-21T02:13:38.238Z,91636.92
2018-03-21T02:14:27.295Z,91635.86
2018-03-21T02:15:16.365Z,91633.64
2018-03-21T02:16:05.409Z,91631.59
2018-03-21T02:16:54.489Z,91629.73
2018-03-21T02:17:43.530Z,91628.31
2018-03-21T02:18:32.570Z,91635.31
2018-03-21T02:19:21.620Z,91631.50
2018-03-21T02:20:10.673Z,91629.29
2018-03-21T02:20:59.712Z,91633.00
2018-03-21T02:21:48.756Z,91629.20
2018-03-21T02:22:37.915Z,91622.63
2018-03-21T02:23:26.968Z,91612.61
2018-03-21T02:24:16.017Z,91606.41
2018-03-21T02:25:05.072Z,91602.22
2018-03-21T02:25:54.129Z,91605.15
2018-03-21T02:26:43.265Z,91601.24
2018-03-21T02:27:32.483Z,91601.16
2018-03-21T02:28:21.533Z,91597.25
2018-03-21T02:29:10.560Z,91584.31
2018-03-21T02:29:59.597Z,91585.64
2018-03-21T02:30:48.669Z,91589.89
2018-03-21T02:31:37.721Z,91593.52
2018-03-21T02:32:26.825Z,91592.19
2018-03-21T02:33:15.866Z,91594.49
2018-03-21T02:34:04.929Z,91595.20
2018-03-21T02:34:54.040Z,91595.44
2018-03-21T02:35:43.094Z,91601.83
2018-03-21T02:36:32.144Z,91608.77
2018-03-21T02:37:21.197Z,91613.39
2018-03-21T02:38:10.240Z,91613.57
2018-03-21T02:38:59.301Z,91617.89
2018-03-21T02:39:48.379Z,91611.34
2018-03-21T02:40:37.438Z,91615.69
2018-03-21T02:41:26.564Z,91621.27
2018-03-21T02:42:15.639Z,91617.79
2018-03-21T02:43:04.683Z,91619.69
2018-03-21T02:43:53.754Z,91624.81
2018-03-21T02:44:42.796Z,91623.05
2018-03-21T02:45:31.948Z,91618.80
2018-03-21T02:46:21.007Z,91622.36
2018-03-21T02:47:10.066Z,91622.90
2018-03-21T02:47:59.110Z,91623.25
2018-03-21T02:48:48.218Z,91619.85
2018-03-21T02:49:37.278Z,91620.65
2018-03-21T02:50:26.328Z,91619.66
2018-03-21T02:51:15.459Z,91623.47
2018-03-21T02:52:04.523Z,91631.26
2018-03-21T02:52:53.765Z,91629.73
2018-03-21T02:53:42.808Z,91634.45
2018-03-21T02:54:31.869Z,91633.60
2018-03-21T02:55:20.928Z,91637.86
2018-03-21T02:56:09.982Z,91636.06
2018-03-21T02:56:59.038Z,91635.71
2018-03-21T02:57:48.109Z,91636.96
2018-03-21T02:58:37.214Z,91636.17
2018-03-21T02:59:26.256Z,91633.45
2018-03-21T03:00:15.315Z,91633.48
2018-03-21T03:01:04.388Z,91634.94
2018-03-21T03:01:53.437Z,91629.35
2018-03-21T03:02:42.491Z,91627.42
2018-03-21T03:03:31.537Z,91629.66
2018-03-21T03:04:20.700Z,91637.77
2018-03-21T03:05:09.752Z,91638.25
2018-03-21T03:05:58.802Z,91637.38
2018-03-21T03:06:47.861Z,91627.11
2018-03-21T03:07:36.918Z,91630.55
2018-03-21T03:08:25.965Z,91620.66
2018-03-21T03:09:15.029Z,91627.58
2018-03-21T03:10:04.160Z,91627.30
2018-03-21T03:10:53.210Z,91630.94
2018-03-21T03:11:42.300Z,91631.57
2018-03-21T03:12:31.344Z,91632.29
2018-03-21T03:13:20.392Z,91640.98
2018-03-21T03:14:09.441Z,91638.48
2018-03-21T03:14:58.676Z,91641.32
2018-03-21T03:15:47.726Z,91642.19
2018-03-21T03:16:36.799Z,91644.77
2018-03-21T03:17:25.876Z,91651.50
2018-03-21T03:18:14.921Z,91656.30
2018-03-21T03:19:03.964Z,91656.12
2018-03-21T03:19:53.014Z,91647.06
2018-03-21T03:20:42.111Z,91645.22
2018-03-21T03:21:31.155Z,91646.55
2018-03-21T03:22:20.195Z,91638.48
2018-03-21T03:23:09.250Z,91636.52
2018-03-21T03:23:58.306Z,91630.23
2018-03-21T03:24:47.356Z,91633.53
2018-03-21T03:25:36.400Z,91628.30
2018-03-21T03:26:25.477Z,91636.02
2018-03-21T03:27:14.550Z,91632.73
2018-03-21T03:28:03.630Z,91629.20
2018-03-21T03:28:52.677Z,91628.76
2018-03-21T03:29:41.729Z,91625.48
2018-03-21T03:30:30.777Z,91625.92
2018-03-21T03:31:19.832Z,91628.14
2018-03-21T03:32:09.032Z,91626.37
2018-03-21T03:32:58.096Z,91627.96
2018-03-21T03:33:47.181Z,91623.17
2018-03-21T03:34:36.409Z,91618.03
2018-03-21T03:35:25.486Z,91617.06
2018-03-21T03:36:14.625Z,91605.88
2018-03-21T03:37:03.758Z,91611.56
2018-03-21T05:56:24.227Z,91721.50
2018-03-21T05:57:13.287Z,91725.75
2018-03-21T05:58:02.340Z,91721.50
2018-03-21T05:58:51.395Z,91721.69
2018-03-21T05:59:40.466Z,91721.86
2018-03-21T06:00:29.525Z,91716.63
2018-03-21T06:01:18.771Z,91724.36
2018-03-21T06:02:07.883Z,91725.06
2018-03-21T06:02:56.981Z,91731.02
2018-03-21T06:03:46.258Z,91725.86
2018-03-21T06:04:35.332Z,91735.10
2018-03-21T06:05:24.394Z,91729.51
2018-03-21T06:06:13.454Z,91728.36
2018-03-21T06:07:02.505Z,91730.93
2018-03-21T06:07:51.610Z,91727.83
2018-03-21T06:08:40.676Z,91732.89
2018-03-21T06:09:29.759Z,91730.48
2018-03-21T06:10:18.941Z,91729.42
2018-03-21T06:11:08.000Z,91737.95
2018-03-21T06:11:57.102Z,91736.00
2018-03-21T06:12:46.173Z,91737.83
2018-03-21T06:13:35.337Z,91739.16
2018-03-21T06:14:24.414Z,91735.61
2018-03-21T06:15:13.483Z,91733.20
2018-03-21T06:16:02.565Z,91726.64
2018-03-21T06:16:51.611Z,91737.11
2018-03-21T06:17:40.668Z,91725.73
2018-03-21T06:18:29.728Z,91728.22
2018-03-21T06:19:18.836Z,91732.48
2018-03-21T06:20:07.913Z,91729.98
2018-03-21T06:20:56.989Z,91729.98
2018-03-21T06:21:46.036Z,91733.08
2018-03-21T06:22:35.141Z,91729.88
2018-03-21T06:23:24.209Z,91731.92
2018-03-21T06:24:13.273Z,91734.66
2018-03-21T06:25:02.378Z,91732.27
2018-03-21T06:25:51.434Z,91738.58
2018-03-21T06:26:40.494Z,91735.45
2018-03-21T06:27:29.583Z,91741.73
2018-03-21T06:28:18.636Z,91744.30
2018-03-21T06:29:07.693Z,91743.47
2018-03-21T06:29:56.745Z,91739.36
2018-03-21T06:30:46.038Z,91739.33
2018-03-21T06:31:35.092Z,91734.02
2018-03-21T06:32:24.170Z,91741.78
2018-03-21T06:33:13.240Z,91746.06
2018-03-21T06:34:02.298Z,91747.56
2018-03-21T06:34:51.374Z,91749.96
2018-03-21T06:35:40.455Z,91743.80
2018-03-21T06:36:29.645Z,91741.92
2018-03-21T06:37:18.702Z,91739.33
2018-03-21T06:38:07.769Z,91741.64
2018-03-21T06:38:56.821Z,91734.17
2018-03-21T06:39:45.872Z,91737.55
2018-03-21T06:40:34.959Z,91734.92
2018-03-21T06:41:24.018Z,91737.02
2018-03-21T06:42:13.133Z,91729.46
2018-03-21T06:43:02.225Z,91727.74
2018-03-21T06:43:51.287Z,91716.07
2018-03-21T06:44:40.372Z,91722.25
2018-03-21T06:45:29.447Z,91718.70
2018-03-21T06:46:18.531Z,91725.73
2018-03-21T06:47:07.594Z,91726.08
2018-03-21T06:47:56.711Z,91729.81
2018-03-21T06:48:45.769Z,91732.65
2018-03-21T06:49:34.824Z,91728.03
2018-03-21T06:50:23.889Z,91727.88
2018-03-21T06:51:13.009Z,91729.08
2018-03-21T06:52:02.070Z,91733.30
2018-03-21T06:52:51.148Z,91729.98
2018-03-21T06:53:40.205Z,91732.84
2018-03-21T06:54:29.276Z,91741.28
2018-03-21T06:55:18.458Z,91742.48
2018-03-21T06:56:07.530Z,91744.23
2018-03-21T06:56:56.656Z,91750.14
2018-03-21T06:57:45.711Z,91754.19
2018-03-21T06:58:34.781Z,91756.16
2018-03-21T06:59:23.847Z,91757.33
2018-03-21T07:00:12.953Z,91760.61
2018-03-21T07:01:02.117Z,91758.55
2018-03-21T07:01:51.180Z,91763.65
2018-03-21T07:02:40.237Z,91757.14
2018-03-21T07:03:29.285Z,91755.19
2018-03-21T07:04:18.349Z,91753.17
2018-03-21T07:05:07.423Z,91753.55
2018-03-21T07:05:56.488Z,91752.39
2018-03-21T07:06:45.590Z,91752.30
2018-03-21T07:07:34.662Z,91755.94
2018-03-21T07:08:23.739Z,91745.19
2018-03-21T07:09:12.813Z,91750.24
2018-03-21T07:10:01.874Z,91742.08
2018-03-21T07:10:50.933Z,91742.49
2018-03-21T07:11:39.995Z,91735.23
2018-03-21T07:12:29.174Z,91736.36
2018-03-21T07:13:18.304Z,91735.89
2018-03-21T07:14:19.081Z,91732.66
2018-03-21T07:15:19.997Z,91732.06
2018-03-21T07:16:20.812Z,91725.91
2018-03-21T07:17:09.907Z,91728.63
2018-03-21T07:17:58.975Z,91724.04
2018-03-21T07:18:48.035Z,91728.84
2018-03-21T07:19:37.104Z,91733.80
2018-03-21T07:20:26.275Z,91736.73
2018-03-21T07:21:15.322Z,91733.41
2018-03-21T07:22:04.414Z,91731.94
2018-03-21T07:22:53.465Z,91733.04
2018-03-21T07:23:42.525Z,91736.23
2018-03-21T07:24:31.630Z,91736.11
2018-03-21T07:25:20.657Z,91730.39
2018-03-21T07:26:09.753Z,91735.75
2018-03-21T07:26:58.830Z,91743.16
2018-03-21T07:27:48.074Z,91740.60
2018-03-21T07:28:37.167Z,91742.34
2018-03-21T07:29:26.257Z,91739.56
2018-03-21T07:30:15.308Z,91746.09
2018-03-21T07:31:04.434Z,91744.48
2018-03-21T07:31:53.631Z,91752.36
2018-03-21T07:32:42.709Z,91745.72
2018-03-21T07:33:31.772Z,91751.75
2018-03-21T07:34:20.838Z,91746.84
2018-03-21T07:35:09.894Z,91748.48
2018-03-21T07:35:58.949Z,91753.55
2018-03-21T07:36:48.018Z,91758.31
2018-03-21T07:37:37.177Z,91760.01
2018-03-21T07:38:26.228Z,91764.62
2018-03-21T07:39:15.299Z,91762.30
2018-03-21T07:40:04.392Z,91762.53
2018-03-21T07:40:53.449Z,91757.02
2018-03-21T07:41:42.499Z,91761.55
2018-03-21T07:42:31.575Z,91756.98
2018-03-21T07:43:20.775Z,91761.86
2018-03-21T07:44:09.842Z,91761.32
2018-03-21T07:44:58.898Z,91762.41
2018-03-21T07:45:47.973Z,91760.05
2018-03-21T07:46:37.071Z,91759.84
2018-03-21T07:47:26.132Z,91765.16
2018-03-21T07:48:15.197Z,91765.72
2018-03-21T07:49:04.316Z,91760.14
2018-03-21T07:49:53.370Z,91763.81
2018-03-21T07:50:42.453Z,91761.08
2018-03-21T07:51:31.517Z,91760.30
2018-03-21T07:52:20.585Z,91763.69
2018-03-21T07:53:09.653Z,91756.24
2018-03-21T07:53:58.728Z,91755.55
2018-03-21T07:54:47.887Z,91754.13
2018-03-21T07:55:36.959Z,91750.50
2018-03-21T07:56:26.009Z,91748.67
2018-03-21T07:57:18.157Z,91742.70
2018-03-21T07:58:07.217Z,91737.94
2018-03-21T07:58:56.271Z,91741.36
2018-03-21T07:59:45.321Z,91733.91
2018-03-21T08:00:34.510Z,91737.27
2018-03-21T08:01:23.571Z,91731.56
2018-03-21T08:02:12.634Z,91736.05
2018-03-21T08:03:01.694Z,91731.69
2018-03-21T08:03:50.759Z,91729.63
2018-03-21T08:04:39.895Z,91718.26
2018-03-21T08:05:28.966Z,91719.05
2018-03-21T08:06:18.072Z,91713.11
2018-03-21T08:07:07.140Z,91709.28
2018-03-21T08:07:56.197Z,91710.23
2018-03-21T08:08:45.267Z,91708.42
2018-03-21T08:09:34.330Z,91712.62
2018-03-21T08:10:23.388Z,91720.28
2018-03-21T08:11:12.560Z,91723.36
2018-03-21T08:12:01.635Z,91724.23
2018-03-21T08:12:50.693Z,91730.41
2018-03-21T08:13:39.748Z,91729.33
2018-03-21T08:14:28.839Z,91735.52
2018-03-21T08:15:17.912Z,91735.98
2018-03-21T08:16:06.979Z,91749.09
2018-03-21T08:16:56.182Z,91746.22
2018-03-21T08:17:45.243Z,91750.14
2018-03-21T08:18:34.293Z,91742.47
2018-03-21T08:19:23.353Z,91737.95
2018-03-21T08:20:12.471Z,91729.16
2018-03-21T08:21:01.553Z,91722.70
2018-03-21T08:21:50.606Z,91710.23
2018-03-21T08:22:39.659Z,91699.28
2018-03-21T08:23:28.745Z,91687.80
2018-03-21T08:24:18.570Z,91685.20
2018-03-21T08:25:07.651Z,91686.27
2018-03-21T08:25:56.756Z,91678.83
2018-03-21T08:26:45.822Z,91681.11
2018-03-21T08:27:34.884Z,91680.05
2018-03-21T08:28:23.949Z,91693.72
2018-03-21T08:29:13.038Z,91703.09
2018-03-21T08:30:02.125Z,91710.14
2018-03-21T08:30:51.181Z,91720.42
2018-03-21T08:31:40.257Z,91718.57
2018-03-21T08:32:29.315Z,91716.87
2018-03-21T08:33:18.472Z,91705.27
2018-03-21T08:34:07.594Z,91711.77
2018-03-21T08:34:57.038Z,91712.67
2018-03-21T08:35:46.110Z,91718.34
2018-03-21T08:36:35.188Z,91717.19
2018-03-21T08:37:24.278Z,91717.17
2018-03-21T08:38:13.332Z,91711.34
2018-03-21T08:39:02.505Z,91710.39
2018-03-21T08:39:51.592Z,91702.93
2018-03-21T08:40:40.667Z,91714.22
2018-03-21T08:41:29.792Z,91711.30
2018-03-21T08:42:18.918Z,91694.81
2018-03-21T08:43:07.995Z,91701.19
2018-03-21T08:43:57.068Z,91703.30
2018-03-21T08:44:46.130Z,91696.66
2018-03-21T08:45:35.189Z,91700.65
2018-03-21T08:46:24.249Z,91703.76
2018-03-21T08:47:13.317Z,91701.58
2018-03-21T08:48:02.434Z,91704.83
2018-03-21T08:48:51.493Z,91705.84
2018-03-21T08:49:40.672Z,91699.85
2018-03-21T08:50:29.789Z,91695.13
2018-03-21T08:51:18.855Z,91701.78
2018-03-21T08:52:07.922Z,91702.15
2018-03-21T08:52:57.037Z,91694.22
2018-03-21T08:53:46.086Z,91693.63
2018-03-21T08:54:35.293Z,91693.98
2018-03-21T08:55:24.353Z,91685.79
2018-03-21T08:56:13.451Z,91693.89
2018-03-21T08:57:02.509Z,91690.75
2018-03-21T08:57:51.619Z,91702.55
2018-03-21T08:58:40.687Z,91708.93
2018-03-21T08:59:29.755Z,91706.96
2018-03-21T09:00:18.875Z,91708.22
2018-03-21T09:01:07.942Z,91716.13
2018-03-21T09:01:57.002Z,91719.80
2018-03-21T09:02:46.062Z,91719.75
2018-03-21T09:03:35.132Z,91728.97
2018-03-21T09:04:24.183Z,91730.30
2018-03-21T09:05:13.266Z,91724.44
2018-03-21T09:06:05.479Z,91738.92
2018-03-21T09:06:54.553Z,91740.44
2018-03-21T09:07:43.652Z,91746.70
2018-03-21T09:08:32.731Z,91749.66
2018-03-21T09:09:21.785Z,91755.20
2018-03-21T09:10:10.840Z,91756.53
2018-03-21T09:10:59.900Z,91747.61
2018-03-21T09:11:49.032Z,91748.35
2018-03-21T09:12:38.117Z,91741.27
2018-03-21T09:13:27.159Z,91743.68
2018-03-21T09:14:16.214Z,91747.98
2018-03-21T09:15:05.291Z,91745.36
2018-03-21T09:15:54.340Z,91749.16
2018-03-21T09:16:43.382Z,91740.47
2018-03-21T09:17:32.484Z,91738.34
2018-03-21T09:18:21.538Z,91728.95
2018-03-21T09:19:10.589Z,91722.22
2018-03-21T09:19:59.650Z,91716.20
2018-03-21T09:20:48.690Z,91714.33
2018-03-21T09:21:38.013Z,91714.41
2018-03-21T09:22:27.060Z,91721.88
2018-03-21T09:23:16.216Z,91719.11
2018-03-21T09:24:05.282Z,91715.48
2018-03-21T09:24:54.322Z,91710.38
2018-03-21T09:25:43.617Z,91715.14
2018-03-21T09:26:32.698Z,91708.17
2018-03-21T09:27:21.746Z,91708.25
2018-03-21T09:28:10.785Z,91704.02
2018-03-21T09:28:59.825Z,91703.94
2018-03-21T09:29:48.898Z,91711.92
2018-03-21T09:30:37.994Z,91716.20
2018-03-21T09:31:27.170Z,91712.86
2018-03-21T09:32:16.229Z,91715.59
2018-03-21T09:33:05.277Z,91718.56
2018-03-21T09:33:54.326Z,91725.81
2018-03-21T09:34:43.377Z,91728.03
2018-03-21T09:35:32.428Z,91724.07
2018-03-21T09:36:21.476Z,91722.94
2018-03-21T09:37:10.567Z,91721.28
2018-03-21T09:37:59.605Z,91722.11
2018-03-21T09:38:48.656Z,91711.77
2018-03-21T09:39:37.701Z,91710.93
2018-03-21T09:40:26.758Z,91714.98
2018-03-21T09:41:15.801Z,91706.84
2018-03-21T09:42:04.932Z,91701.88
2018-03-21T09:42:54.046Z,91691.66
2018-03-21T09:43:43.114Z,91691.06
2018-03-21T09:44:32.342Z,91699.58
2018-03-21T09:45:21.388Z,91704.88
2018-03-21T09:46:10.437Z,91705.94
2018-03-21T09:46:59.594Z,91702.55
2018-03-21T09:47:48.642Z,91704.80
2018-03-21T09:48:37.740Z,91711.09
2018-03-21T09:49:26.755Z,91712.16
2018-03-21T09:50:15.801Z,91709.09
2018-03-21T09:51:04.862Z,91702.16
2018-03-21T09:51:53.912Z,91692.67
2018-03-21T09:52:43.002Z,91697.01
2018-03-21T09:53:32.058Z,91692.13
2018-03-21T09:54:21.121Z,91685.23
2018-03-21T09:55:10.184Z,91676.90
2018-03-21T09:55:59.233Z,91669.34
2018-03-21T09:56:48.284Z,91670.25
2018-03-21T09:57:37.330Z,91670.36
2018-03-21T09:58:26.911Z,91670.08
2018-03-21T09:59:16.008Z,91673.59
2018-03-21T10:00:05.121Z,91669.03
2018-03-21T10:00:54.188Z,91674.85
2018-03-21T10:01:43.245Z,91676.16
2018-03-21T10:02:32.296Z,91683.59
2018-03-21T10:03:21.340Z,91691.66
2018-03-21T10:04:10.372Z,91692.36
2018-03-21T10:04:59.503Z,91702.13
2018-03-21T10:05:48.551Z,91700.12
2018-03-21T10:06:37.601Z,91691.18
2018-03-21T10:07:26.653Z,91694.68
2018-03-21T10:08:15.706Z,91690.16
2018-03-21T10:09:04.802Z,91690.31
2018-03-21T10:09:53.880Z,91691.48
2018-03-21T10:10:42.985Z,91686.00
2018-03-21T10:11:32.024Z,91692.03
2018-03-21T10:12:21.085Z,91698.52
2018-03-21T10:13:10.318Z,91700.65
2018-03-21T10:13:59.367Z,91704.27
2018-03-21T10:14:48.421Z,91704.03
2018-03-21T10:15:37.475Z,91708.87
2018-03-21T10:16:26.595Z,91706.82
2018-03-21T10:17:15.661Z,91715.33
2018-03-21T10:18:04.727Z,91712.11
2018-03-21T10:18:53.791Z,91720.11
2018-03-21T10:19:42.853Z,91717.94
2018-03-21T10:20:31.925Z,91727.20
2018-03-21T10:21:20.999Z,91726.22
2018-03-21T10:22:10.172Z,91723.34
2018-03-21T10:22:59.276Z,91725.14
2018-03-21T10:23:48.333Z,91719.67
2018-03-21T10:24:37.387Z,91710.31
2018-03-21T10:25:26.460Z,91718.42
2018-03-21T10:26:15.528Z,91721.80
2018-03-21T10:27:04.615Z,91731.08
2018-03-21T10:27:53.777Z,91735.09
2018-03-21T10:28:42.846Z,91725.16
2018-03-21T10:29:31.901Z,91729.75
2018-03-21T10:30:20.959Z,91728.15
2018-03-21T10:31:10.045Z,91727.02
2018-03-21T10:31:59.117Z,91735.38
2018-03-21T10:32:48.222Z,91741.50
2018-03-21T10:33:37.278Z,91738.80
2018-03-21T10:34:26.347Z,91727.97
2018-03-21T10:35:15.445Z,91728.41
2018-03-21T10:36:04.601Z,91733.64
2018-03-21T10:36:53.668Z,91736.05
2018-03-21T10:37:42.725Z,91729.06
2018-03-21T10:38:31.873Z,91723.45
2018-03-21T10:39:20.926Z,91719.05
2018-03-21T10:40:09.980Z,91727.78
2018-03-21T10:40:59.049Z,91732.05
2018-03-21T10:41:48.110Z,91738.71
2018-03-21T10:42:37.157Z,91745.57
2018-03-21T10:43:26.236Z,91743.23
2018-03-21T10:44:15.419Z,91740.33
2018-03-21T10:45:04.621Z,91746.14
2018-03-21T10:45:53.667Z,91746.44
2018-03-21T10:46:42.742Z,91756.96
2018-03-21T10:47:31.829Z,91757.38
2018-03-21T10:48:20.891Z,91764.80
2018-03-21T10:49:09.953Z,91761.55
2018-03-21T10:49:59.050Z,91762.09
2018-03-21T10:50:48.150Z,91764.95
2018-03-21T10:51:37.289Z,91765.05
2018-03-21T10:52:38.775Z,91770.20
2018-03-21T10:53:15.479Z,91772.61
2018-03-21T10:54:04.557Z,91781.85
2018-03-21T10:54:53.621Z,91783.55
2018-03-21T10:55:42.690Z,91777.43
2018-03-21T10:56:31.797Z,91772.27
2018-03-21T10:57:20.849Z,91769.24
2018-03-21T10:58:09.935Z,91770.83
2018-03-21T10:58:59.013Z,91773.52
2018-03-21T10:59:48.066Z,91778.49
2018-03-21T11:00:37.232Z,91776.66
2018-03-21T11:01:31.757Z,91778.61
2018-03-21T11:02:20.826Z,91778.09
2018-03-21T11:03:12.334Z,91776.61
2018-03-21T11:04:01.392Z,91783.91
2018-03-21T11:04:50.440Z,91782.50
2018-03-21T11:05:39.599Z,91787.38
2018-03-21T13:17:24.572Z,91701.55
2018-03-21T13:18:13.674Z,91708.65
2018-03-21T13:19:02.724Z,91704.20
2018-03-21T13:19:51.811Z,91710.23
2018-03-21T13:20:40.886Z,91726.23
2018-03-21T13:21:29.945Z,91726.98
2018-03-21T13:22:19.009Z,91728.48
2018-03-21T13:23:08.160Z,91729.06
2018-03-21T13:23:57.226Z,91725.48
2018-03-21T13:24:46.286Z,91726.41
2018-03-21T13:25:35.353Z,91721.11
2018-03-21T13:26:24.404Z,91727.56
2018-03-21T13:27:13.462Z,91724.27
2018-03-21T13:28:02.527Z,91718.25
2018-03-21T13:28:51.638Z,91713.06
2018-03-21T13:29:40.704Z,91708.87
2018-03-21T13:30:29.825Z,91714.50
2018-03-21T13:31:18.904Z,91715.76
2018-03-21T13:32:07.960Z,91728.44
2018-03-21T13:32:57.022Z,91732.37
2018-03-21T13:33:46.202Z,91736.04
2018-03-21T13:34:35.258Z,91722.81
2018-03-21T13:35:24.353Z,91711.09
2018-03-21T13:36:13.561Z,91707.42
2018-03-21T13:37:02.647Z,91706.25
2018-03-21T13:37:51.737Z,91707.27
2018-03-21T13:38:40.809Z,91697.34
2018-03-21T13:39:29.874Z,91697.36
2018-03-21T13:40:18.941Z,91693.16
2018-03-21T13:41:08.005Z,91698.30
2018-03-21T13:41:57.168Z,91699.25
2018-03-21T13:42:46.227Z,91703.93
2018-03-21T13:43:35.281Z,91705.78
2018-03-21T13:44:24.338Z,91712.86
2018-03-21T13:45:13.399Z,91704.76
2018-03-21T13:46:02.459Z,91704.08
2018-03-21T13:46:51.516Z,91699.50
2018-03-21T13:47:40.638Z,91699.83
2018-03-21T13:48:29.718Z,91695.23
2018-03-21T13:49:18.782Z,91696.33
2018-03-21T13:50:07.841Z,91679.63
2018-03-21T13:50:56.900Z,91679.88
2018-03-21T13:51:45.953Z,91683.31
2018-03-21T13:52:35.000Z,91693.39
2018-03-21T13:53:24.189Z,91699.92
2018-03-21T13:54:13.256Z,91699.53
2018-03-21T13:55:02.338Z,91702.59
2018-03-21T13:55:51.394Z,91698.39
2018-03-21T13:56:40.445Z,91689.41
2018-03-21T13:57:29.500Z,91689.45
2018-03-21T13:58:18.576Z,91676.65
2018-03-21T13:59:07.705Z,91673.80
2018-03-21T13:59:56.772Z,91671.14
2018-03-21T14:00:45.854Z,91676.17
2018-03-21T14:01:34.913Z,91678.12
2018-03-21T14:02:23.989Z,91678.97
2018-03-21T14:03:13.110Z,91686.13
2018-03-21T14:04:02.194Z,91688.62
2018-03-21T14:04:51.299Z,91688.48
2018-03-21T14:05:40.362Z,91683.81
2018-03-21T14:06:29.469Z,91678.81